sensor_id;sensor_type;location;lat;lon;timestamp;pressure;altitude;pressure_sealevel;temperature;humidity
11395;BME280;5753;54.402;10.220;2023-07-24T00:00:25;100216.88;;;25.91;64.92
11395;BME280;5753;54.402;10.220;2023-07-24T00:02:51;100216.78;;;26.08;63.66
11395;BME280;5753;54.402;10.220;2023-07-24T00:05:19;100212.41;;;26.53;61.31
11395;BME280;5753;54.402;10.220;2023-07-24T00:07:45;100217.16;;;25.86;63.60
11395;BME280;5753;54.402;10.220;2023-07-24T00:10:11;100211.22;;;26.43;62.09
11395;BME280;5753;54.402;10.220;2023-07-24T00:12:37;100209.59;;;26.40;62.22
11395;BME280;5753;54.402;10.220;2023-07-24T00:15:05;100212.56;;;26.50;60.94
11395;BME280;5753;54.402;10.220;2023-07-24T00:17:31;100207.88;;;26.55;61.91
11395;BME280;5753;54.402;10.220;2023-07-24T00:19:57;100200.00;;;25.93;64.04
11395;BME280;5753;54.402;10.220;2023-07-24T00:22:23;100203.41;;;26.25;62.43
11395;BME280;5753;54.402;10.220;2023-07-24T00:24:49;100201.69;;;26.99;59.12
11395;BME280;5753;54.402;10.220;2023-07-24T00:27:15;100201.00;;;27.09;59.24
11395;BME280;5753;54.402;10.220;2023-07-24T00:29:41;100194.03;;;27.35;58.52
11395;BME280;5753;54.402;10.220;2023-07-24T00:32:08;100190.16;;;26.41;61.22
11395;BME280;5753;54.402;10.220;2023-07-24T00:34:34;100190.50;;;26.51;61.51
11395;BME280;5753;54.402;10.220;2023-07-24T00:37:00;100189.63;;;26.20;62.88
11395;BME280;5753;54.402;10.220;2023-07-24T00:39:26;100193.13;;;26.51;62.17
11395;BME280;5753;54.402;10.220;2023-07-24T00:41:54;100195.13;;;25.71;66.16
11395;BME280;5753;54.402;10.220;2023-07-24T00:44:20;100187.00;;;26.79;61.34
11395;BME280;5753;54.402;10.220;2023-07-24T00:46:46;100178.03;;;26.53;62.01
11395;BME280;5753;54.402;10.220;2023-07-24T00:49:13;100190.63;;;26.03;64.63
11395;BME280;5753;54.402;10.220;2023-07-24T00:51:40;100180.09;;;26.62;61.19
11395;BME280;5753;54.402;10.220;2023-07-24T00:54:06;100186.63;;;25.66;65.43
11395;BME280;5753;54.402;10.220;2023-07-24T00:56:33;100187.44;;;26.43;63.53
11395;BME280;5753;54.402;10.220;2023-07-24T00:59:00;100181.75;;;26.34;63.15
11395;BME280;5753;54.402;10.220;2023-07-24T01:01:26;100193.16;;;25.28;67.90
11395;BME280;5753;54.402;10.220;2023-07-24T01:03:53;100177.81;;;26.42;63.34
11395;BME280;5753;54.402;10.220;2023-07-24T01:06:19;100176.66;;;26.01;62.96
11395;BME280;5753;54.402;10.220;2023-07-24T01:08:46;100175.56;;;26.06;64.03
11395;BME280;5753;54.402;10.220;2023-07-24T01:11:28;100174.44;;;26.24;64.38
11395;BME280;5753;54.402;10.220;2023-07-24T01:16:59;100171.25;;;27.33;59.60
11395;BME280;5753;54.402;10.220;2023-07-24T01:19:47;100163.47;;;26.74;61.02
11395;BME280;5753;54.402;10.220;2023-07-24T01:27:44;100149.81;;;26.09;65.00
11395;BME280;5753;54.402;10.220;2023-07-24T01:30:11;100148.00;;;25.80;65.95
11395;BME280;5753;54.402;10.220;2023-07-24T01:32:38;100148.38;;;26.76;61.87
11395;BME280;5753;54.402;10.220;2023-07-24T01:35:05;100145.72;;;27.05;61.08
11395;BME280;5753;54.402;10.220;2023-07-24T01:37:33;100140.97;;;25.33;67.00
11395;BME280;5753;54.402;10.220;2023-07-24T01:40:00;100151.00;;;25.42;67.58
11395;BME280;5753;54.402;10.220;2023-07-24T01:42:26;100145.66;;;26.05;64.27
11395;BME280;5753;54.402;10.220;2023-07-24T01:44:54;100144.34;;;26.26;64.64
11395;BME280;5753;54.402;10.220;2023-07-24T01:47:21;100151.69;;;26.07;64.76
11395;BME280;5753;54.402;10.220;2023-07-24T01:49:48;100148.97;;;25.93;65.94
11395;BME280;5753;54.402;10.220;2023-07-24T01:52:14;100147.69;;;25.54;67.71
11395;BME280;5753;54.402;10.220;2023-07-24T01:54:40;100144.41;;;26.55;64.06
11395;BME280;5753;54.402;10.220;2023-07-24T01:57:06;100146.28;;;24.84;72.69
11395;BME280;5753;54.402;10.220;2023-07-24T01:59:32;100137.13;;;26.44;64.29
11395;BME280;5753;54.402;10.220;2023-07-24T02:01:58;100138.19;;;26.56;63.79
11395;BME280;5753;54.402;10.220;2023-07-24T02:04:24;100136.50;;;26.55;63.19
11395;BME280;5753;54.402;10.220;2023-07-24T02:06:51;100133.00;;;26.10;65.84
11395;BME280;5753;54.402;10.220;2023-07-24T02:09:20;100136.50;;;27.24;61.16
11395;BME280;5753;54.402;10.220;2023-07-24T02:11:46;100136.28;;;26.44;63.12
11395;BME280;5753;54.402;10.220;2023-07-24T02:14:13;100134.72;;;25.65;68.42
11395;BME280;5753;54.402;10.220;2023-07-24T02:16:39;100136.88;;;26.19;65.12
11395;BME280;5753;54.402;10.220;2023-07-24T02:19:06;100131.81;;;26.30;65.23
11395;BME280;5753;54.402;10.220;2023-07-24T02:21:32;100144.69;;;25.76;68.25
11395;BME280;5753;54.402;10.220;2023-07-24T02:23:58;100120.41;;;26.44;64.37
11395;BME280;5753;54.402;10.220;2023-07-24T02:26:24;100125.41;;;26.48;64.65
11395;BME280;5753;54.402;10.220;2023-07-24T02:28:51;100131.81;;;25.24;70.65
11395;BME280;5753;54.402;10.220;2023-07-24T02:31:17;100124.88;;;25.37;70.51
11395;BME280;5753;54.402;10.220;2023-07-24T02:33:43;100122.88;;;26.47;65.09
11395;BME280;5753;54.402;10.220;2023-07-24T02:36:09;100124.50;;;26.05;66.25
11395;BME280;5753;54.402;10.220;2023-07-24T02:38:35;100124.63;;;26.89;62.80
11395;BME280;5753;54.402;10.220;2023-07-24T02:41:01;100120.03;;;27.07;61.94
11395;BME280;5753;54.402;10.220;2023-07-24T02:43:27;100120.72;;;26.53;63.54
11395;BME280;5753;54.402;10.220;2023-07-24T02:45:53;100122.97;;;26.59;63.66
11395;BME280;5753;54.402;10.220;2023-07-24T02:48:19;100133.56;;;26.59;63.74
11395;BME280;5753;54.402;10.220;2023-07-24T02:50:48;100146.31;;;25.79;66.82
11395;BME280;5753;54.402;10.220;2023-07-24T02:53:15;100131.09;;;26.42;64.64
11395;BME280;5753;54.402;10.220;2023-07-24T02:55:44;100135.03;;;26.35;64.68
11395;BME280;5753;54.402;10.220;2023-07-24T02:58:12;100143.25;;;25.70;67.23
11395;BME280;5753;54.402;10.220;2023-07-24T03:00:39;100129.75;;;26.35;65.05
11395;BME280;5753;54.402;10.220;2023-07-24T03:03:05;100139.91;;;26.13;65.01
11395;BME280;5753;54.402;10.220;2023-07-24T03:05:31;100135.38;;;26.15;65.09
11395;BME280;5753;54.402;10.220;2023-07-24T03:07:57;100137.44;;;26.54;63.60
11395;BME280;5753;54.402;10.220;2023-07-24T03:10:24;100140.09;;;26.10;65.64
11395;BME280;5753;54.402;10.220;2023-07-24T03:12:50;100141.94;;;27.09;61.52
11395;BME280;5753;54.402;10.220;2023-07-24T03:15:16;100135.94;;;25.76;67.36
11395;BME280;5753;54.402;10.220;2023-07-24T03:17:43;100142.66;;;27.25;61.15
11395;BME280;5753;54.402;10.220;2023-07-24T03:20:13;100135.88;;;27.21;60.42
11395;BME280;5753;54.402;10.220;2023-07-24T03:22:41;100134.41;;;26.60;62.85
11395;BME280;5753;54.402;10.220;2023-07-24T03:25:08;100135.78;;;27.49;59.00
11395;BME280;5753;54.402;10.220;2023-07-24T03:27:34;100129.94;;;28.36;56.44
11395;BME280;5753;54.402;10.220;2023-07-24T03:30:00;100124.94;;;28.06;56.36
11395;BME280;5753;54.402;10.220;2023-07-24T03:32:26;100122.84;;;27.45;58.60
11395;BME280;5753;54.402;10.220;2023-07-24T03:34:53;100132.59;;;27.44;58.55
11395;BME280;5753;54.402;10.220;2023-07-24T03:37:20;100120.84;;;26.93;60.80
11395;BME280;5753;54.402;10.220;2023-07-24T03:39:46;100121.34;;;27.68;58.06
11395;BME280;5753;54.402;10.220;2023-07-24T03:42:12;100128.44;;;26.71;61.28
11395;BME280;5753;54.402;10.220;2023-07-24T03:44:40;100127.03;;;26.79;62.07
11395;BME280;5753;54.402;10.220;2023-07-24T03:47:06;100127.59;;;26.42;62.81
11395;BME280;5753;54.402;10.220;2023-07-24T03:49:33;100121.06;;;26.33;62.83
11395;BME280;5753;54.402;10.220;2023-07-24T03:51:59;100124.47;;;26.78;61.55
11395;BME280;5753;54.402;10.220;2023-07-24T03:54:25;100115.34;;;27.51;58.24
11395;BME280;5753;54.402;10.220;2023-07-24T03:56:52;100122.44;;;27.51;57.40
11395;BME280;5753;54.402;10.220;2023-07-24T03:59:18;100118.34;;;26.77;60.68
11395;BME280;5753;54.402;10.220;2023-07-24T04:01:44;100121.44;;;27.12;59.69
11395;BME280;5753;54.402;10.220;2023-07-24T04:04:10;100118.13;;;27.09;59.30
11395;BME280;5753;54.402;10.220;2023-07-24T04:06:36;100112.34;;;26.02;63.39
11395;BME280;5753;54.402;10.220;2023-07-24T04:09:02;100117.75;;;27.15;59.04
11395;BME280;5753;54.402;10.220;2023-07-24T04:11:28;100109.94;;;27.53;57.54
11395;BME280;5753;54.402;10.220;2023-07-24T04:13:54;100117.47;;;27.05;58.79
11395;BME280;5753;54.402;10.220;2023-07-24T04:16:20;100119.66;;;26.42;62.00
11395;BME280;5753;54.402;10.220;2023-07-24T04:18:46;100118.75;;;26.57;62.26
11395;BME280;5753;54.402;10.220;2023-07-24T04:21:12;100111.72;;;26.84;60.76
11395;BME280;5753;54.402;10.220;2023-07-24T04:23:38;100119.97;;;26.65;60.84
11395;BME280;5753;54.402;10.220;2023-07-24T04:26:04;100112.56;;;26.85;60.07
11395;BME280;5753;54.402;10.220;2023-07-24T04:28:30;100127.56;;;27.13;59.32
11395;BME280;5753;54.402;10.220;2023-07-24T04:31:00;100127.97;;;27.60;57.23
11395;BME280;5753;54.402;10.220;2023-07-24T04:33:27;100122.25;;;26.13;62.90
11395;BME280;5753;54.402;10.220;2023-07-24T04:35:55;100123.53;;;27.07;59.73
11395;BME280;5753;54.402;10.220;2023-07-24T04:38:21;100129.31;;;27.26;58.90
11395;BME280;5753;54.402;10.220;2023-07-24T04:40:47;100120.59;;;27.66;57.16
11395;BME280;5753;54.402;10.220;2023-07-24T04:43:14;100122.66;;;27.48;57.91
11395;BME280;5753;54.402;10.220;2023-07-24T04:45:40;100120.94;;;28.51;54.10
11395;BME280;5753;54.402;10.220;2023-07-24T04:48:06;100108.34;;;27.50;56.98
11395;BME280;5753;54.402;10.220;2023-07-24T04:50:32;100125.06;;;27.24;57.97
11395;BME280;5753;54.402;10.220;2023-07-24T04:52:59;100124.22;;;26.54;60.14
11395;BME280;5753;54.402;10.220;2023-07-24T04:55:25;100128.34;;;27.01;58.60
11395;BME280;5753;54.402;10.220;2023-07-24T04:57:51;100114.72;;;26.92;59.15
11395;BME280;5753;54.402;10.220;2023-07-24T05:00:17;100116.13;;;26.27;60.83
11395;BME280;5753;54.402;10.220;2023-07-24T05:02:43;100130.88;;;25.87;62.41
11395;BME280;5753;54.402;10.220;2023-07-24T05:05:09;100119.75;;;26.97;59.94
11395;BME280;5753;54.402;10.220;2023-07-24T05:07:36;100119.88;;;26.67;60.42
11395;BME280;5753;54.402;10.220;2023-07-24T05:10:02;100124.03;;;27.00;59.05
11395;BME280;5753;54.402;10.220;2023-07-24T05:12:28;100124.03;;;26.57;60.54
11395;BME280;5753;54.402;10.220;2023-07-24T05:14:54;100118.69;;;27.14;58.76
11395;BME280;5753;54.402;10.220;2023-07-24T05:17:20;100122.31;;;26.99;59.18
11395;BME280;5753;54.402;10.220;2023-07-24T05:19:46;100119.72;;;27.11;58.16
11395;BME280;5753;54.402;10.220;2023-07-24T05:22:12;100112.44;;;28.34;55.01
11395;BME280;5753;54.402;10.220;2023-07-24T05:24:38;100111.41;;;28.49;53.90
11395;BME280;5753;54.402;10.220;2023-07-24T05:27:05;100118.13;;;28.02;55.27
11395;BME280;5753;54.402;10.220;2023-07-24T05:29:32;100117.53;;;28.37;55.03
11395;BME280;5753;54.402;10.220;2023-07-24T05:31:58;100117.56;;;27.45;56.09
11395;BME280;5753;54.402;10.220;2023-07-24T05:34:25;100112.53;;;27.40;56.90
11395;BME280;5753;54.402;10.220;2023-07-24T05:36:51;100111.56;;;27.95;55.82
11395;BME280;5753;54.402;10.220;2023-07-24T05:39:17;100115.09;;;27.69;56.49
11395;BME280;5753;54.402;10.220;2023-07-24T05:41:43;100106.25;;;27.95;56.38
11395;BME280;5753;54.402;10.220;2023-07-24T05:44:09;100110.50;;;28.10;55.69
11395;BME280;5753;54.402;10.220;2023-07-24T05:46:35;100113.84;;;27.87;55.32
11395;BME280;5753;54.402;10.220;2023-07-24T05:49:01;100108.81;;;28.09;54.98
11395;BME280;5753;54.402;10.220;2023-07-24T05:51:28;100119.63;;;28.06;54.75
11395;BME280;5753;54.402;10.220;2023-07-24T05:53:54;100119.59;;;28.82;52.66
11395;BME280;5753;54.402;10.220;2023-07-24T05:56:20;100121.56;;;28.30;53.72
11395;BME280;5753;54.402;10.220;2023-07-24T05:58:46;100112.00;;;27.35;56.59
11395;BME280;5753;54.402;10.220;2023-07-24T06:01:12;100108.81;;;28.09;54.98
11395;BME280;5753;54.402;10.220;2023-07-24T06:03:38;100118.94;;;27.23;56.63
11395;BME280;5753;54.402;10.220;2023-07-24T06:06:05;100116.72;;;27.44;56.32
11395;BME280;5753;54.402;10.220;2023-07-24T06:08:31;100120.28;;;28.61;53.21
11395;BME280;5753;54.402;10.220;2023-07-24T06:10:57;100106.06;;;28.11;55.08
11395;BME280;5753;54.402;10.220;2023-07-24T06:13:23;100109.97;;;28.18;54.64
11395;BME280;5753;54.402;10.220;2023-07-24T06:15:49;100093.75;;;28.22;53.86
11395;BME280;5753;54.402;10.220;2023-07-24T06:18:16;100081.53;;;27.82;55.25
11395;BME280;5753;54.402;10.220;2023-07-24T06:20:42;100074.09;;;27.08;57.86
11395;BME280;5753;54.402;10.220;2023-07-24T06:23:08;100078.44;;;27.09;57.47
11395;BME280;5753;54.402;10.220;2023-07-24T06:25:34;100095.19;;;27.63;56.32
11395;BME280;5753;54.402;10.220;2023-07-24T06:28:00;100093.00;;;27.55;56.76
11395;BME280;5753;54.402;10.220;2023-07-24T06:30:26;100085.06;;;28.08;55.88
11395;BME280;5753;54.402;10.220;2023-07-24T06:32:53;100083.84;;;28.39;54.12
11395;BME280;5753;54.402;10.220;2023-07-24T06:35:19;100085.63;;;28.26;54.45
11395;BME280;5753;54.402;10.220;2023-07-24T06:37:45;100088.47;;;27.97;54.59
11395;BME280;5753;54.402;10.220;2023-07-24T06:40:11;100082.56;;;28.44;53.73
11395;BME280;5753;54.402;10.220;2023-07-24T06:42:38;100081.94;;;28.41;53.13
11395;BME280;5753;54.402;10.220;2023-07-24T06:45:04;100095.25;;;28.01;54.38
11395;BME280;5753;54.402;10.220;2023-07-24T06:47:30;100097.06;;;28.13;53.95
11395;BME280;5753;54.402;10.220;2023-07-24T06:49:56;100096.75;;;28.56;53.21
11395;BME280;5753;54.402;10.220;2023-07-24T06:52:23;100092.63;;;28.27;54.25
11395;BME280;5753;54.402;10.220;2023-07-24T06:54:49;100087.91;;;27.52;56.59
11395;BME280;5753;54.402;10.220;2023-07-24T06:57:15;100092.69;;;27.60;56.76
11395;BME280;5753;54.402;10.220;2023-07-24T06:59:41;100090.56;;;28.68;53.66
11395;BME280;5753;54.402;10.220;2023-07-24T07:02:07;100095.41;;;29.00;53.03
11395;BME280;5753;54.402;10.220;2023-07-24T07:04:33;100080.16;;;29.38;51.29
11395;BME280;5753;54.402;10.220;2023-07-24T07:06:59;100089.22;;;29.36;51.51
11395;BME280;5753;54.402;10.220;2023-07-24T07:09:25;100087.69;;;30.26;49.38
11395;BME280;5753;54.402;10.220;2023-07-24T07:11:51;100094.44;;;30.07;49.68
11395;BME280;5753;54.402;10.220;2023-07-24T07:14:17;100098.38;;;28.82;52.77
11395;BME280;5753;54.402;10.220;2023-07-24T07:16:44;100090.66;;;29.16;51.43
11395;BME280;5753;54.402;10.220;2023-07-24T07:19:10;100083.69;;;29.74;49.77
11395;BME280;5753;54.402;10.220;2023-07-24T07:21:36;100081.75;;;29.17;51.06
11395;BME280;5753;54.402;10.220;2023-07-24T07:24:02;100092.13;;;29.68;49.67
11395;BME280;5753;54.402;10.220;2023-07-24T07:26:28;100080.56;;;28.97;51.48
11395;BME280;5753;54.402;10.220;2023-07-24T07:28:55;100083.66;;;29.63;50.49
11395;BME280;5753;54.402;10.220;2023-07-24T07:31:21;100090.44;;;29.67;50.40
11395;BME280;5753;54.402;10.220;2023-07-24T07:33:47;100093.09;;;29.43;50.57
11395;BME280;5753;54.402;10.220;2023-07-24T07:36:14;100092.22;;;29.90;49.98
11395;BME280;5753;54.402;10.220;2023-07-24T07:38:41;100093.75;;;29.47;50.53
11395;BME280;5753;54.402;10.220;2023-07-24T07:41:07;100096.72;;;28.69;51.94
11395;BME280;5753;54.402;10.220;2023-07-24T07:43:33;100090.19;;;29.70;49.54
11395;BME280;5753;54.402;10.220;2023-07-24T07:46:00;100089.50;;;30.14;49.00
11395;BME280;5753;54.402;10.220;2023-07-24T07:48:26;100095.78;;;29.30;50.61
11395;BME280;5753;54.402;10.220;2023-07-24T07:50:52;100096.38;;;30.05;48.90
11395;BME280;5753;54.402;10.220;2023-07-24T07:53:19;100095.75;;;29.67;49.65
11395;BME280;5753;54.402;10.220;2023-07-24T07:55:45;100098.38;;;29.56;49.67
11395;BME280;5753;54.402;10.220;2023-07-24T07:58:11;100095.63;;;30.03;49.40
11395;BME280;5753;54.402;10.220;2023-07-24T08:00:37;100097.78;;;28.92;51.07
11395;BME280;5753;54.402;10.220;2023-07-24T08:03:06;100106.13;;;28.98;51.84
11395;BME280;5753;54.402;10.220;2023-07-24T08:05:32;100093.53;;;29.50;50.42
11395;BME280;5753;54.402;10.220;2023-07-24T08:07:58;100095.25;;;29.14;51.03
11395;BME280;5753;54.402;10.220;2023-07-24T08:10:25;100099.63;;;28.53;51.77
11395;BME280;5753;54.402;10.220;2023-07-24T08:12:51;100103.00;;;28.55;52.34
11395;BME280;5753;54.402;10.220;2023-07-24T08:15:17;100114.72;;;28.76;52.04
11395;BME280;5753;54.402;10.220;2023-07-24T08:17:43;100108.66;;;27.19;56.68
11395;BME280;5753;54.402;10.220;2023-07-24T08:20:09;100102.63;;;27.83;55.71
11395;BME280;5753;54.402;10.220;2023-07-24T08:22:35;100107.31;;;27.26;57.12
11395;BME280;5753;54.402;10.220;2023-07-24T08:25:01;100105.34;;;27.69;56.09
11395;BME280;5753;54.402;10.220;2023-07-24T08:27:27;100112.56;;;27.67;56.96
11395;BME280;5753;54.402;10.220;2023-07-24T08:29:54;100113.47;;;27.39;57.57
11395;BME280;5753;54.402;10.220;2023-07-24T08:32:20;100112.16;;;27.86;56.77
11395;BME280;5753;54.402;10.220;2023-07-24T08:34:46;100114.56;;;28.54;54.86
11395;BME280;5753;54.402;10.220;2023-07-24T08:37:12;100111.78;;;27.38;57.48
11395;BME280;5753;54.402;10.220;2023-07-24T08:39:38;100112.16;;;27.86;57.33
11395;BME280;5753;54.402;10.220;2023-07-24T08:42:14;100115.16;;;27.94;56.81
11395;BME280;5753;54.402;10.220;2023-07-24T08:44:40;100106.75;;;29.26;53.93
11395;BME280;5753;54.402;10.220;2023-07-24T08:47:10;100118.66;;;29.57;52.62
11395;BME280;5753;54.402;10.220;2023-07-24T08:49:40;100110.09;;;29.64;51.71
11395;BME280;5753;54.402;10.220;2023-07-24T08:52:08;100100.00;;;30.04;50.83
11395;BME280;5753;54.402;10.220;2023-07-24T08:54:36;100105.84;;;29.51;51.73
11395;BME280;5753;54.402;10.220;2023-07-24T08:57:06;100105.78;;;31.10;49.02
11395;BME280;5753;54.402;10.220;2023-07-24T08:59:33;100095.94;;;30.34;49.66
11395;BME280;5753;54.402;10.220;2023-07-24T09:01:59;100097.63;;;30.35;49.60
11395;BME280;5753;54.402;10.220;2023-07-24T09:04:26;100091.19;;;30.26;49.97
11395;BME280;5753;54.402;10.220;2023-07-24T09:06:52;100090.56;;;31.01;48.03
11395;BME280;5753;54.402;10.220;2023-07-24T09:09:19;100091.09;;;30.50;48.60
11395;BME280;5753;54.402;10.220;2023-07-24T09:11:52;100093.03;;;30.70;48.01
11395;BME280;5753;54.402;10.220;2023-07-24T09:14:26;100090.78;;;31.31;46.84
11395;BME280;5753;54.402;10.220;2023-07-24T09:17:08;100086.31;;;31.10;47.74
11395;BME280;5753;54.402;10.220;2023-07-24T09:19:35;100090.97;;;30.85;48.01
11395;BME280;5753;54.402;10.220;2023-07-24T09:22:13;100094.19;;;31.11;47.75
11395;BME280;5753;54.402;10.220;2023-07-24T09:27:16;100105.34;;;30.38;47.97
11395;BME280;5753;54.402;10.220;2023-07-24T09:29:43;100107.44;;;29.64;50.03
11395;BME280;5753;54.402;10.220;2023-07-24T09:32:19;100102.59;;;31.39;46.62
11395;BME280;5753;54.402;10.220;2023-07-24T09:34:46;100098.34;;;30.70;47.58
11395;BME280;5753;54.402;10.220;2023-07-24T09:37:26;100101.41;;;31.63;45.65
11395;BME280;5753;54.402;10.220;2023-07-24T09:39:53;100096.41;;;30.28;47.59
11395;BME280;5753;54.402;10.220;2023-07-24T09:42:28;100092.31;;;30.80;46.90
11395;BME280;5753;54.402;10.220;2023-07-24T09:44:55;100093.28;;;30.79;47.38
11395;BME280;5753;54.402;10.220;2023-07-24T09:47:21;100099.28;;;31.25;46.04
11395;BME280;5753;54.402;10.220;2023-07-24T09:49:47;100102.66;;;31.16;45.17
11395;BME280;5753;54.402;10.220;2023-07-24T09:52:14;100106.38;;;32.10;44.61
11395;BME280;5753;54.402;10.220;2023-07-24T09:54:55;100098.25;;;31.70;44.64
11395;BME280;5753;54.402;10.220;2023-07-24T09:57:23;100100.09;;;31.58;45.27
11395;BME280;5753;54.402;10.220;2023-07-24T09:59:50;100101.13;;;30.91;46.59
11395;BME280;5753;54.402;10.220;2023-07-24T10:02:18;100091.50;;;31.34;44.82
11395;BME280;5753;54.402;10.220;2023-07-24T10:04:44;100095.97;;;29.64;48.63
11395;BME280;5753;54.402;10.220;2023-07-24T10:07:11;100079.81;;;30.24;47.94
11395;BME280;5753;54.402;10.220;2023-07-24T10:09:39;100092.84;;;31.17;46.34
11395;BME280;5753;54.402;10.220;2023-07-24T10:12:05;100088.91;;;31.64;44.47
11395;BME280;5753;54.402;10.220;2023-07-24T10:14:32;100083.06;;;31.06;45.27
11395;BME280;5753;54.402;10.220;2023-07-24T10:16:59;100072.78;;;30.01;46.74
11395;BME280;5753;54.402;10.220;2023-07-24T10:19:36;100067.81;;;29.85;47.57
11395;BME280;5753;54.402;10.220;2023-07-24T10:22:03;100063.50;;;30.06;46.86
11395;BME280;5753;54.402;10.220;2023-07-24T10:24:30;100068.59;;;30.54;46.63
11395;BME280;5753;54.402;10.220;2023-07-24T10:26:57;100058.47;;;31.14;45.89
11395;BME280;5753;54.402;10.220;2023-07-24T10:29:26;100069.22;;;31.35;44.76
11395;BME280;5753;54.402;10.220;2023-07-24T10:31:55;100068.56;;;31.74;43.91
11395;BME280;5753;54.402;10.220;2023-07-24T10:34:21;100074.31;;;32.21;43.06
11395;BME280;5753;54.402;10.220;2023-07-24T10:36:48;100070.53;;;31.61;43.17
11395;BME280;5753;54.402;10.220;2023-07-24T10:39:15;100073.69;;;31.87;43.20
11395;BME280;5753;54.402;10.220;2023-07-24T10:41:42;100073.63;;;32.49;41.28
11395;BME280;5753;54.402;10.220;2023-07-24T10:44:10;100068.41;;;31.97;42.86
11395;BME280;5753;54.402;10.220;2023-07-24T10:46:41;100076.16;;;32.20;42.49
11395;BME280;5753;54.402;10.220;2023-07-24T10:49:08;100066.94;;;33.53;40.87
11395;BME280;5753;54.402;10.220;2023-07-24T10:51:35;100062.63;;;33.33;41.27
11395;BME280;5753;54.402;10.220;2023-07-24T10:54:04;100063.34;;;34.20;39.42
11395;BME280;5753;54.402;10.220;2023-07-24T10:56:31;100054.06;;;34.15;38.44
11395;BME280;5753;54.402;10.220;2023-07-24T10:59:05;100059.94;;;33.42;40.14
11395;BME280;5753;54.402;10.220;2023-07-24T11:01:31;100053.06;;;34.80;37.94
11395;BME280;5753;54.402;10.220;2023-07-24T11:03:58;100049.50;;;33.49;39.77
11395;BME280;5753;54.402;10.220;2023-07-24T11:06:25;100043.72;;;34.29;37.39
11395;BME280;5753;54.402;10.220;2023-07-24T11:08:56;100045.84;;;33.11;39.69
11395;BME280;5753;54.402;10.220;2023-07-24T11:11:28;100058.22;;;33.51;38.12
11395;BME280;5753;54.402;10.220;2023-07-24T11:13:55;100065.84;;;33.36;38.39
11395;BME280;5753;54.402;10.220;2023-07-24T11:16:21;100070.13;;;32.59;40.51
11395;BME280;5753;54.402;10.220;2023-07-24T11:18:48;100063.22;;;32.46;40.81
11395;BME280;5753;54.402;10.220;2023-07-24T11:21:15;100055.84;;;33.29;39.50
11395;BME280;5753;54.402;10.220;2023-07-24T11:23:48;100049.78;;;33.27;39.51
11395;BME280;5753;54.402;10.220;2023-07-24T11:26:15;100044.25;;;34.97;36.25
11395;BME280;5753;54.402;10.220;2023-07-24T11:28:41;100036.31;;;35.06;36.91
11395;BME280;5753;54.402;10.220;2023-07-24T11:31:08;100031.84;;;35.32;36.28
11395;BME280;5753;54.402;10.220;2023-07-24T11:33:34;100041.38;;;35.88;35.42
11395;BME280;5753;54.402;10.220;2023-07-24T11:36:00;100026.47;;;35.32;36.13
11395;BME280;5753;54.402;10.220;2023-07-24T11:38:27;100029.53;;;33.53;39.29
11395;BME280;5753;54.402;10.220;2023-07-24T11:40:54;100031.19;;;34.67;37.56
11395;BME280;5753;54.402;10.220;2023-07-24T11:43:23;100035.16;;;34.63;37.87
11395;BME280;5753;54.402;10.220;2023-07-24T11:45:51;100042.59;;;34.32;37.94
11395;BME280;5753;54.402;10.220;2023-07-24T11:48:21;100032.47;;;33.89;38.24
11395;BME280;5753;54.402;10.220;2023-07-24T11:50:50;100020.91;;;33.88;39.05
11395;BME280;5753;54.402;10.220;2023-07-24T11:53:25;100036.84;;;32.53;39.96
11395;BME280;5753;54.402;10.220;2023-07-24T11:55:53;100034.97;;;32.44;40.14
11395;BME280;5753;54.402;10.220;2023-07-24T11:58:20;100020.66;;;32.95;39.64
11395;BME280;5753;54.402;10.220;2023-07-24T12:00:47;100019.03;;;33.32;39.48
11395;BME280;5753;54.402;10.220;2023-07-24T12:03:19;100029.88;;;34.44;38.02
11395;BME280;5753;54.402;10.220;2023-07-24T12:05:45;100032.66;;;34.15;37.72
11395;BME280;5753;54.402;10.220;2023-07-24T12:08:12;100026.16;;;33.70;38.39
11395;BME280;5753;54.402;10.220;2023-07-24T12:10:40;100017.44;;;33.49;38.67
11395;BME280;5753;54.402;10.220;2023-07-24T12:13:07;100014.25;;;34.12;38.88
11395;BME280;5753;54.402;10.220;2023-07-24T12:15:33;100015.16;;;35.38;36.90
11395;BME280;5753;54.402;10.220;2023-07-24T12:18:01;100019.91;;;33.99;38.29
11395;BME280;5753;54.402;10.220;2023-07-24T12:20:28;100020.69;;;34.73;37.63
11395;BME280;5753;54.402;10.220;2023-07-24T12:22:54;100021.06;;;33.87;39.20
11395;BME280;5753;54.402;10.220;2023-07-24T12:25:21;100017.91;;;34.01;37.84
11395;BME280;5753;54.402;10.220;2023-07-24T12:27:48;100025.44;;;33.10;38.95
11395;BME280;5753;54.402;10.220;2023-07-24T12:30:14;100026.97;;;33.90;38.19
11395;BME280;5753;54.402;10.220;2023-07-24T12:32:40;100018.84;;;33.63;38.50
11395;BME280;5753;54.402;10.220;2023-07-24T12:35:08;100012.38;;;33.65;38.25
11395;BME280;5753;54.402;10.220;2023-07-24T12:37:35;100025.56;;;33.09;39.77
11395;BME280;5753;54.402;10.220;2023-07-24T12:40:01;100020.22;;;31.26;42.65
11395;BME280;5753;54.402;10.220;2023-07-24T12:42:28;100020.06;;;32.32;41.25
11395;BME280;5753;54.402;10.220;2023-07-24T12:44:54;100021.53;;;31.94;42.20
11395;BME280;5753;54.402;10.220;2023-07-24T12:47:20;100031.25;;;31.74;43.29
11395;BME280;5753;54.402;10.220;2023-07-24T12:49:46;100029.13;;;31.99;43.61
11395;BME280;5753;54.402;10.220;2023-07-24T12:52:12;100009.06;;;31.32;45.41
11395;BME280;5753;54.402;10.220;2023-07-24T12:54:38;100013.44;;;32.05;41.79
11395;BME280;5753;54.402;10.220;2023-07-24T12:57:04;100021.66;;;31.92;44.32
11395;BME280;5753;54.402;10.220;2023-07-24T12:59:30;100023.66;;;32.21;42.59